^^
Grace C. Lehan Memorial Weather Station Historical Data
Daily Summary for May 7, 2021 Units:  Metric    English   Both
Daily Weekly Monthly Yearly
  High: Low: Average:
Temperature: 22.8 °C 11.3 °C 16.4 °C
Dew Point: 16.8 °C 10.6 °C 13.6 °C
Humidity: 97% 60.5% 85%
Wind Speed: 4.2km/h 0km/h 0.2km/h
Wind Gust: 8km/h - -
Wind- - East
Pressure: 1026.3 hPa 1020.5 hPa -
Precipitation: 0 mm    
 
 
Tabular Data for May 7, 2021
Time Temperature Dew Point Pressure Wind Wind Speed Wind Gust Humidity Rainfall Rate (Hourly) solar
00:00 14.2 °C 13.1 °C 1026 hPa Calm     93% 0 mm 0 W/m2
00:09 14.1 °C 13 °C 1026 hPa Calm     93% 0 mm 0 W/m2
00:14 14.1 °C 12.9 °C 1026 hPa Calm     93% 0 mm 0 W/m2
00:19 13.9 °C 12.8 °C 1026 hPa Calm     93% 0 mm 0 W/m2
00:24 13.9 °C 12.8 °C 1026 hPa Calm     93% 0 mm 0 W/m2
00:29 13.8 °C 12.8 °C 1026 hPa Calm     93.4% 0 mm 0 W/m2
00:34 13.8 °C 12.8 °C 1026 hPa Calm     94% 0 mm 0 W/m2
00:39 13.7 °C 12.8 °C 1026 hPa Calm     94% 0 mm 0 W/m2
00:44 13.7 °C 12.7 °C 1026 hPa Calm     94% 0 mm 0 W/m2
00:49 13.6 °C 12.7 °C 1026 hPa Calm     94% 0 mm 0 W/m2
00:54 13.6 °C 12.6 °C 1025.6 hPa Calm     94% 0 mm 0 W/m2
00:59 13.6 °C 12.6 °C 1025.6 hPa Calm     94% 0 mm 0 W/m2
01:04 13.5 °C 12.6 °C 1025.6 hPa Calm     94% 0 mm 0 W/m2
01:09 13.4 °C 12.5 °C 1025.6 hPa Calm     94% 0 mm 0 W/m2
01:14 13.4 °C 12.5 °C 1025.6 hPa Calm     94% 0 mm 0 W/m2
01:19 13.4 °C 12.4 °C 1025.6 hPa Calm     94% 0 mm 0 W/m2
01:24 13.3 °C 12.4 °C 1025.6 hPa Calm     94% 0 mm 0 W/m2
01:29 13.3 °C 12.3 °C 1025.6 hPa Calm     94% 0 mm 0 W/m2
01:34 13.2 °C 12.3 °C 1025.6 hPa Calm     94% 0 mm 0 W/m2
01:39 13.2 °C 12.2 °C 1025.6 hPa Calm     94% 0 mm 0 W/m2
01:44 13.1 °C 12.2 °C 1025.6 hPa Calm     94% 0 mm 0 W/m2
01:49 13 °C 12.1 °C 1025.6 hPa Calm     94% 0 mm 0 W/m2
01:54 12.9 °C 12 °C 1025.6 hPa Calm     94% 0 mm 0 W/m2
01:59 12.9 °C 11.9 °C 1025.6 hPa Calm     94% 0 mm 0 W/m2
02:04 12.8 °C 11.9 °C 1026 hPa Calm     94% 0 mm 0 W/m2
02:09 12.8 °C 11.8 °C 1026 hPa Calm     94% 0 mm 0 W/m2
02:14 12.7 °C 11.8 °C 1025.6 hPa Calm     94% 0 mm 0 W/m2
02:19 12.7 °C 11.7 °C 1025.6 hPa Calm     94% 0 mm 0 W/m2
02:24 12.7 °C 11.7 °C 1026 hPa Calm     94% 0 mm 0 W/m2
02:29 12.6 °C 11.7 °C 1026 hPa Calm     94% 0 mm 0 W/m2
02:34 12.6 °C 11.6 °C 1025.6 hPa Calm     94% 0 mm 0 W/m2
02:39 12.5 °C 11.7 °C 1025.6 hPa Calm     94.9% 0 mm 0 W/m2
02:44 12.5 °C 11.7 °C 1025.6 hPa Calm     95% 0 mm 0 W/m2
02:49 12.4 °C 11.7 °C 1025.6 hPa Calm     95% 0 mm 0 W/m2
02:54 12.4 °C 11.7 °C 1025.6 hPa Calm     95% 0 mm 0 W/m2
02:59 12.4 °C 11.7 °C 1025.3 hPa Calm     95% 0 mm 0 W/m2
03:04 12.4 °C 11.6 °C 1025.3 hPa Calm     95% 0 mm 0 W/m2
03:09 12.3 °C 11.6 °C 1025.3 hPa Calm     95% 0 mm 0 W/m2
03:14 12.3 °C 11.5 °C 1025.3 hPa Calm     95% 0 mm 0 W/m2
03:19 12.2 °C 11.4 °C 1025.3 hPa Calm     95% 0 mm 0 W/m2
03:24 12.2 °C 11.4 °C 1025.3 hPa Calm     95% 0 mm 0 W/m2
03:29 12.2 °C 11.4 °C 1025.3 hPa Calm     95% 0 mm 0 W/m2
03:34 12.1 °C 11.3 °C 1025.3 hPa Calm     95% 0 mm 0 W/m2
03:39 12.1 °C 11.3 °C 1025.3 hPa Calm     95% 0 mm 0 W/m2
03:44 12.1 °C 11.3 °C 1025.3 hPa Calm     95% 0 mm 0 W/m2
03:49 12.1 °C 11.3 °C 1025.3 hPa Calm     95% 0 mm 0 W/m2
03:54 12 °C 11.2 °C 1025.3 hPa Calm     95% 0 mm 0 W/m2
03:59 11.9 °C 11.2 °C 1025.3 hPa Calm     95% 0 mm 0 W/m2
04:09 11.9 °C 11.1 °C 1025.3 hPa Calm     95% 0 mm 0 W/m2
04:14 11.8 °C 11.1 °C 1025.3 hPa Calm     95% 0 mm 0 W/m2
04:19 11.7 °C 10.9 °C 1025.3 hPa Calm     95% 0 mm 0 W/m2
04:24 11.6 °C 10.8 °C 1025.3 hPa Calm     95% 0 mm 0 W/m2
04:29 11.6 °C 10.8 °C 1025.3 hPa Calm     95% 0 mm 0 W/m2
04:34 11.6 °C 10.8 °C 1025.3 hPa Calm     95% 0 mm 0 W/m2
04:39 11.6 °C 10.8 °C 1025.3 hPa Calm     95% 0 mm 0 W/m2
04:44 11.6 °C 10.8 °C 1025.3 hPa Calm     95% 0 mm 0 W/m2
04:49 11.6 °C 10.8 °C 1025.3 hPa Calm     95% 0 mm 0 W/m2
04:54 11.6 °C 10.8 °C 1025.3 hPa Calm     95% 0 mm 0 W/m2
04:59 11.6 °C 10.9 °C 1025.3 hPa Calm     95.7% 0 mm 0 W/m2
05:04 11.7 °C 11.1 °C 1025.6 hPa Calm     95.8% 0 mm 0 W/m2
05:09 11.7 °C 11.1 °C 1025.6 hPa Calm     96% 0 mm 0 W/m2
05:14 11.8 °C 11.1 °C 1025.6 hPa Calm     96% 0 mm 0 W/m2
05:19 11.8 °C 11.1 °C 1025.6 hPa Calm     95.9% 0 mm 0 W/m2
05:24 11.7 °C 10.9 °C 1025.6 hPa Calm     95% 0 mm 0 W/m2
05:29 11.7 °C 10.9 °C 1025.6 hPa Calm     95% 0 mm 0 W/m2
05:34 11.7 °C 11 °C 1025.6 hPa Calm     95.7% 0 mm 0 W/m2
05:39 11.6 °C 10.8 °C 1025.6 hPa Calm     95.3% 0 mm 0 W/m2
05:44 11.6 °C 10.8 °C 1025.6 hPa Calm     95% 0 mm 0 W/m2
05:49 11.4 °C 10.7 °C 1025.6 hPa Calm     95% 0 mm 0 W/m2
05:54 11.4 °C 10.7 °C 1025.6 hPa Calm     95% 0 mm 0 W/m2
05:59 11.3 °C 10.6 °C 1025.6 hPa Calm     95% 0 mm 0 W/m2
06:04 11.3 °C 10.6 °C 1025.6 hPa Calm     95% 0 mm 0 W/m2
06:09 11.3 °C 10.6 °C 1025.6 hPa Calm     95.2% 0 mm 0 W/m2
06:14 11.3 °C 10.7 °C 1025.6 hPa Calm     96% 0 mm 0 W/m2
06:19 11.3 °C 10.7 °C 1025.6 hPa Calm     96% 0 mm 0 W/m2
06:24 11.3 °C 10.7 °C 1025.6 hPa Calm     96% 0 mm 0 W/m2
06:29 11.3 °C 10.7 °C 1025.6 hPa Calm     96% 0 mm 0 W/m2
06:34 11.4 °C 10.8 °C 1025.6 hPa Calm     96% 0 mm 0 W/m2
06:39 11.4 °C 10.8 °C 1025.6 hPa Calm     96% 0 mm 0 W/m2
06:44 11.4 °C 10.8 °C 1025.6 hPa Calm     96% 0 mm 0 W/m2
06:49 11.4 °C 10.8 °C 1025.6 hPa Calm     96% 0 mm 0 W/m2
06:54 11.4 °C 10.8 °C 1025.6 hPa Calm     96% 0 mm 0 W/m2
06:59 11.5 °C 10.9 °C 1025.6 hPa Calm     96% 0 mm 0 W/m2
07:04 11.5 °C 10.9 °C 1025.6 hPa Calm     96% 0 mm 0 W/m2
07:09 11.6 °C 10.9 °C 1025.6 hPa Calm     96% 0 mm 5 W/m2
07:14 11.6 °C 11 °C 1026 hPa Calm     96% 0 mm 9 W/m2
07:19 11.7 °C 11.1 °C 1026 hPa Calm     96% 0 mm 9 W/m2
07:24 11.7 °C 11.1 °C 1026 hPa Calm     96% 0 mm 14 W/m2
07:29 11.7 °C 11.1 °C 1026 hPa Calm     96% 0 mm 19 W/m2
07:34 11.7 °C 11.1 °C 1026 hPa Calm     96% 0 mm 19 W/m2
07:39 11.7 °C 11.1 °C 1026 hPa Calm     96% 0 mm 26 W/m2
07:44 11.7 °C 11.1 °C 1026 hPa Calm     96% 0 mm 28 W/m2
07:49 11.8 °C 11.2 °C 1026 hPa Calm     96% 0 mm 33 W/m2
07:54 11.8 °C 11.2 °C 1026.3 hPa Calm     96% 0 mm 44 W/m2
07:59 11.8 °C 11.2 °C 1026.3 hPa Calm   1.6 km/h 96% 0 mm 46 W/m2
08:00 11.9 °C 11.3 °C 1026 hPa Calm   1.6 km/h 96% 0 mm 39 W/m2
08:09 11.9 °C 11.3 °C 1026.3 hPa Calm     96% 0 mm 54 W/m2
08:14 11.9 °C 11.3 °C 1026 hPa Calm     96% 0 mm 60 W/m2
08:19 11.8 °C 11.2 °C 1026 hPa Calm     96% 0 mm 69 W/m2
08:24 11.8 °C 11.2 °C 1026 hPa Calm     96% 0 mm 76 W/m2
08:29 11.9 °C 11.3 °C 1026 hPa Calm     96% 0 mm 72 W/m2
08:34 12.2 °C 11.6 °C 1026 hPa Calm     96% 0 mm 81 W/m2
08:39 12.2 °C 11.6 °C 1026.3 hPa Calm     96% 0 mm 81 W/m2
08:44 12.2 °C 11.6 °C 1026.3 hPa Calm     96% 0 mm 97 W/m2
08:49 12.2 °C 11.6 °C 1026 hPa Calm     96% 0 mm 123 W/m2
08:54 12.2 °C 11.6 °C 1026 hPa Calm     96% 0 mm 125 W/m2
08:59 12.2 °C 11.6 °C 1026 hPa Calm     96% 0 mm 123 W/m2
09:04 12.3 °C 11.8 °C 1026 hPa Calm     96.6% 0 mm 116 W/m2
09:09 12.6 °C 12.1 °C 1026 hPa Calm     97% 0 mm 118 W/m2
09:14 12.8 °C 12.4 °C 1026 hPa Calm     97% 0 mm 120 W/m2
09:19 12.8 °C 12.4 °C 1026 hPa Calm     97% 0 mm 128 W/m2
09:24 12.9 °C 12.4 °C 1025.6 hPa Calm     97% 0 mm 178 W/m2
09:29 13.1 °C 12.6 °C 1025.6 hPa Calm     97% 0 mm 193 W/m2
09:34 13.1 °C 12.6 °C 1025.6 hPa Calm     97% 0 mm 162 W/m2
09:39 13.1 °C 12.7 °C 1026 hPa Calm     97% 0 mm 221 W/m2
09:44 13.1 °C 12.7 °C 1026 hPa Calm     97% 0 mm 185 W/m2
09:49 13.2 °C 12.7 °C 1026 hPa Calm     97% 0 mm 199 W/m2
09:54 13.2 °C 12.7 °C 1026 hPa Calm     97% 0 mm 199 W/m2
09:59 13.2 °C 12.8 °C 1026 hPa North 0.3 km/h 4.8 km/h 97% 0 mm 320 W/m2
10:04 13.5 °C 13.1 °C 1026 hPa Calm   4.8 km/h 97% 0 mm 334 W/m2
10:09 13.7 °C 13.2 °C 1026 hPa North 0.2 km/h 3.2 km/h 97% 0 mm 320 W/m2
10:14 13.8 °C 13.3 °C 1026 hPa Calm   3.2 km/h 97% 0 mm 281 W/m2
10:19 14 °C 13.6 °C 1026 hPa Calm   3.2 km/h 97% 0 mm 295 W/m2
10:24 14.2 °C 13.7 °C 1026 hPa Calm   3.2 km/h 97% 0 mm 320 W/m2
10:29 14.4 °C 13.9 °C 1026 hPa Calm   3.2 km/h 97% 0 mm 320 W/m2
10:34 14.7 °C 14.3 °C 1026 hPa Calm   3.2 km/h 97% 0 mm 640 W/m2
10:39 15.2 °C 14.8 °C 1026 hPa Calm     97% 0 mm 631 W/m2
10:44 15.8 °C 15.3 °C 1025.6 hPa North 0.2 km/h 3.2 km/h 97% 0 mm 633 W/m2
10:49 16.1 °C 15.7 °C 1025.6 hPa Calm   3.2 km/h 97% 0 mm 636 W/m2
10:54 16.9 °C 16.3 °C 1025.6 hPa North 0.2 km/h 3.2 km/h 96.5% 0 mm 645 W/m2
10:59 17.5 °C 16.6 °C 1025.6 hPa Calm   3.2 km/h 94% 0 mm 657 W/m2
11:04 18.3 °C 16.8 °C 1025.6 hPa Calm   3.2 km/h 91.1% 0 mm 664 W/m2
11:09 18.8 °C 16.6 °C 1025.3 hPa North 0.2 km/h 3.2 km/h 86.9% 0 mm 670 W/m2
11:14 19.3 °C 16.7 °C 1025.3 hPa Calm   3.2 km/h 85.1% 0 mm 677 W/m2
11:19 19.7 °C 16.8 °C 1025.3 hPa Calm   3.2 km/h 83.7% 0 mm 684 W/m2
11:24 19.9 °C 16.4 °C 1025.3 hPa Calm   3.2 km/h 80.3% 0 mm 686 W/m2
11:29 19.9 °C 16.3 °C 1025.3 hPa NE 0.2 km/h 4.8 km/h 79.3% 0 mm 469 W/m2
11:34 19.9 °C 16.1 °C 1025.3 hPa NE 0.2 km/h 4.8 km/h 78.5% 0 mm 246 W/m2
11:39 19.9 °C 16.2 °C 1025.3 hPa Calm   3.2 km/h 79.6% 0 mm 218 W/m2
11:44 20 °C 16.4 °C 1024.9 hPa NE 0.2 km/h 3.2 km/h 79.9% 0 mm 190 W/m2
11:49 20.1 °C 16.2 °C 1024.9 hPa Calm   3.2 km/h 78.3% 0 mm 83 W/m2
11:54 20.1 °C 16.2 °C 1024.9 hPa NE 0.2 km/h 4.8 km/h 78.3% 0 mm 267 W/m2
11:55 20.1 °C 16.3 °C 1024.9 hPa Calm   4.8 km/h 79% 0 mm 188 W/m2
12:09 20.3 °C 16.3 °C 1024.6 hPa Calm     77.6% 0 mm 174 W/m2
12:14 20.3 °C 16.1 °C 1024.6 hPa Calm     76.7% 0 mm 218 W/m2
12:19 20.4 °C 16.3 °C 1024.6 hPa Calm     77% 0 mm 394 W/m2
12:24 20.6 °C 16.4 °C 1024.6 hPa Calm   1.6 km/h 76.8% 0 mm 422 W/m2
12:29 20.8 °C 16.2 °C 1024.6 hPa NE 0.2 km/h 3.2 km/h 74.7% 0 mm 285 W/m2
12:34 20.9 °C 16.3 °C 1024.6 hPa Calm   3.2 km/h 74.8% 0 mm 116 W/m2
12:39 21 °C 16.1 °C 1024.3 hPa Calm   1.6 km/h 73.8% 0 mm 285 W/m2
12:44 21.1 °C 16.2 °C 1024.3 hPa Calm   3.2 km/h 73.9% 0 mm 234 W/m2
12:49 21.1 °C 16.1 °C 1024.3 hPa Calm   3.2 km/h 72.9% 0 mm 67 W/m2
12:54 21 °C 15.6 °C 1024.3 hPa NE 0.2 km/h 3.2 km/h 71.1% 0 mm 62 W/m2
12:59 20.9 °C 15.8 °C 1023.9 hPa NE 0.5 km/h 3.2 km/h 72.2% 0 mm 172 W/m2
13:04 20.9 °C 15.3 °C 1023.9 hPa Calm   3.2 km/h 70.2% 0 mm 636 W/m2
13:09 21.1 °C 15.4 °C 1023.9 hPa Calm     70% 0 mm 594 W/m2
13:14 21.2 °C 15.2 °C 1023.9 hPa Calm     68.6% 0 mm 596 W/m2
13:19 21.3 °C 15.4 °C 1023.9 hPa North 4 km/h 8 km/h 69.5% 0 mm 552 W/m2
13:24 21.4 °C 15.3 °C 1023.9 hPa Calm   8 km/h 68.4% 0 mm 253 W/m2
13:29 21.5 °C 15.1 °C 1023.6 hPa SE 0.6 km/h 8 km/h 66.9% 0 mm 253 W/m2
13:34 21.5 °C 15.2 °C 1023.6 hPa Calm   8 km/h 67.3% 0 mm 86 W/m2
13:39 21.6 °C 15.3 °C 1023.2 hPa Calm     67.7% 0 mm 165 W/m2
13:44 21.6 °C 15.1 °C 1023.2 hPa Calm     66.8% 0 mm 70 W/m2
13:49 21.6 °C 15.6 °C 1023.2 hPa Calm   1.6 km/h 68.6% 0 mm 95 W/m2
13:54 21.7 °C 15.6 °C 1023.2 hPa SE 0.5 km/h 4.8 km/h 68.4% 0 mm 109 W/m2
13:59 21.8 °C 15.6 °C 1022.9 hPa SSE 0.3 km/h 4.8 km/h 67.7% 0 mm 91 W/m2
14:04 22 °C 15.6 °C 1022.9 hPa Calm   4.8 km/h 66.8% 0 mm 146 W/m2
14:09 22.1 °C 15.7 °C 1022.9 hPa SE 0.6 km/h 3.2 km/h 66.9% 0 mm 70 W/m2
14:14 22.2 °C 15.6 °C 1022.9 hPa ESE 2.9 km/h 6.4 km/h 66.1% 0 mm 70 W/m2
14:19 22.2 °C 15.4 °C 1022.9 hPa East 0.6 km/h 6.4 km/h 65.3% 0 mm 90 W/m2
14:24 22.2 °C 15.3 °C 1022.9 hPa Calm   6.4 km/h 65.2% 0 mm 113 W/m2
14:29 22.1 °C 15.1 °C 1022.6 hPa East 0.2 km/h 6.4 km/h 64.5% 0 mm 113 W/m2
14:34 22.1 °C 15.3 °C 1022.6 hPa Calm   6.4 km/h 65.5% 0 mm 83 W/m2
14:39 22.2 °C 15.4 °C 1022.6 hPa South 0.5 km/h 6.4 km/h 65.7% 0 mm 91 W/m2
14:44 22.3 °C 15.2 °C 1022.6 hPa South 1 km/h 6.4 km/h 64.3% 0 mm 79 W/m2
14:49 22.3 °C 15.1 °C 1022.6 hPa South 1.9 km/h 6.4 km/h 63.7% 0 mm 121 W/m2
14:54 22.3 °C 15.1 °C 1022.2 hPa SSW 1.9 km/h 6.4 km/h 63.6% 0 mm 88 W/m2
14:59 22.3 °C 15.3 °C 1022.2 hPa WSW 4.2 km/h 8 km/h 64.5% 0 mm 62 W/m2
15:04 22.3 °C 15.4 °C 1022.2 hPa NW 2.6 km/h 8 km/h 65% 0 mm 79 W/m2
15:09 22.3 °C 15.2 °C 1022.2 hPa NNW 0.3 km/h 6.4 km/h 64.1% 0 mm 77 W/m2
15:14 22.4 °C 15.3 °C 1022.2 hPa NNW 1 km/h 6.4 km/h 64.1% 0 mm 74 W/m2
15:19 22.4 °C 14.9 °C 1022.2 hPa NNE 2.1 km/h 6.4 km/h 62.4% 0 mm 114 W/m2
15:24 22.6 °C 15.2 °C 1022.2 hPa NNE 1.4 km/h 6.4 km/h 63% 0 mm 204 W/m2
15:29 22.7 °C 15.1 °C 1022.2 hPa NNE 0.6 km/h 6.4 km/h 62.3% 0 mm 202 W/m2
15:34 22.7 °C 15.2 °C 1021.9 hPa NNE 0.6 km/h 6.4 km/h 62.8% 0 mm 100 W/m2
15:39 22.8 °C 15.1 °C 1021.9 hPa NNE 0.8 km/h 4.8 km/h 61.9% 0 mm 118 W/m2
15:44 22.8 °C 15.2 °C 1021.9 hPa NNE 1.8 km/h 4.8 km/h 62.2% 0 mm 44 W/m2
15:49 22.8 °C 14.8 °C 1021.9 hPa NNE 0.6 km/h 4.8 km/h 60.7% 0 mm 28 W/m2
15:54 22.7 °C 14.9 °C 1021.9 hPa NNE 1 km/h 4.8 km/h 61.2% 0 mm 26 W/m2
15:59 22.7 °C 14.7 °C 1021.9 hPa NNE 0.6 km/h 4.8 km/h 60.9% 0 mm 26 W/m2
16:00 22.7 °C 14.8 °C 1021.9 hPa Calm   4.8 km/h 61% 0 mm 25 W/m2
16:09 22.6 °C 15.1 °C 1021.6 hPa NNE 0.6 km/h 3.2 km/h 62.4% 0 mm 25 W/m2
16:14 22.6 °C 14.6 °C 1021.6 hPa Calm   3.2 km/h 60.6% 0 mm 25 W/m2
16:19 22.5 °C 14.4 °C 1021.6 hPa NNE 0.2 km/h 3.2 km/h 60.5% 0 mm 23 W/m2
16:24 22.4 °C 14.6 °C 1021.6 hPa Calm   3.2 km/h 61.2% 0 mm 23 W/m2
16:29 22.4 °C 14.6 °C 1021.6 hPa NNE 0.6 km/h 3.2 km/h 61.2% 0 mm 23 W/m2
16:34 22.4 °C 14.8 °C 1021.6 hPa Calm   3.2 km/h 62% 0 mm 23 W/m2
16:39 22.4 °C 15 °C 1021.6 hPa NNE 0.5 km/h 4.8 km/h 63% 0 mm 21 W/m2
16:44 22.3 °C 15 °C 1021.6 hPa NNE 0.8 km/h 4.8 km/h 63.2% 0 mm 21 W/m2
16:49 22.3 °C 14.7 °C 1021.6 hPa Calm   4.8 km/h 62% 0 mm 21 W/m2
16:54 22.3 °C 14.8 °C 1021.6 hPa Calm   4.8 km/h 62.5% 0 mm 19 W/m2
16:59 22.3 °C 14.9 °C 1021.2 hPa Calm   4.8 km/h 63% 0 mm 19 W/m2
17:04 22.2 °C 14.9 °C 1021.2 hPa Calm   4.8 km/h 63.4% 0 mm 19 W/m2
17:09 22.1 °C 15 °C 1021.2 hPa Calm   1.6 km/h 64% 0 mm 19 W/m2
17:14 22.1 °C 14.9 °C 1021.2 hPa Calm   1.6 km/h 64% 0 mm 18 W/m2
17:19 22 °C 15.2 °C 1021.2 hPa Calm   1.6 km/h 65.4% 0 mm 18 W/m2
17:24 21.9 °C 15.2 °C 1021.2 hPa Calm   1.6 km/h 65.4% 0 mm 16 W/m2
17:29 21.8 °C 14.9 °C 1021.2 hPa Calm   1.6 km/h 65% 0 mm 16 W/m2
17:34 21.8 °C 15.1 °C 1021.2 hPa Calm   1.6 km/h 65.7% 0 mm 14 W/m2
17:39 21.7 °C 15.1 °C 1021.2 hPa Calm     66% 0 mm 14 W/m2
17:44 21.6 °C 15.1 °C 1021.2 hPa Calm     66.6% 0 mm 12 W/m2
17:49 21.5 °C 15.2 °C 1021.2 hPa Calm     67% 0 mm 12 W/m2
17:54 21.4 °C 15.1 °C 1021.2 hPa Calm     67.1% 0 mm 11 W/m2
17:59 21.3 °C 15.2 °C 1021.2 hPa Calm     68% 0 mm 9 W/m2
18:04 21.2 °C 15.3 °C 1021.2 hPa Calm     68.8% 0 mm 7 W/m2
18:09 21.1 °C 15.2 °C 1021.2 hPa Calm     69% 0 mm 5 W/m2
18:14 20.9 °C 15.1 °C 1021.2 hPa Calm     69.2% 0 mm 5 W/m2
18:19 20.8 °C 15.1 °C 1021.2 hPa Calm     69.8% 0 mm 0 W/m2
18:24 20.7 °C 15.1 °C 1021.2 hPa Calm     70.3% 0 mm 0 W/m2
18:29 20.6 °C 15.2 °C 1021.2 hPa Calm     71.3% 0 mm 0 W/m2
18:34 20.5 °C 15.4 °C 1021.2 hPa Calm     73% 0 mm 0 W/m2
18:39 20.3 °C 15.6 °C 1021.2 hPa Calm     74% 0 mm 0 W/m2
18:44 20.2 °C 15.5 °C 1021.2 hPa Calm     74.5% 0 mm 0 W/m2
18:49 19.9 °C 15.4 °C 1021.2 hPa Calm     75% 0 mm 0 W/m2
18:54 19.7 °C 15.4 °C 1021.2 hPa Calm     75.8% 0 mm 0 W/m2
18:59 19.6 °C 15.4 °C 1021.2 hPa Calm     77% 0 mm 0 W/m2
19:04 19.4 °C 15.4 °C 1021.2 hPa Calm     77.8% 0 mm 0 W/m2
19:09 19.2 °C 15.3 °C 1021.2 hPa Calm     78.3% 0 mm 0 W/m2
19:14 19 °C 15.3 °C 1021.2 hPa Calm     79% 0 mm 0 W/m2
19:19 18.8 °C 15.3 °C 1021.2 hPa Calm     80% 0 mm 0 W/m2
19:24 18.7 °C 15.3 °C 1021.2 hPa Calm     80.5% 0 mm 0 W/m2
19:29 18.6 °C 15.3 °C 1021.2 hPa Calm     81.3% 0 mm 0 W/m2
19:34 18.4 °C 15.4 °C 1021.2 hPa Calm     82.6% 0 mm 0 W/m2
19:39 18.3 °C 15.4 °C 1021.2 hPa Calm     83% 0 mm 0 W/m2
19:44 18.2 °C 15.4 °C 1021.2 hPa Calm     83.7% 0 mm 0 W/m2
19:49 18.1 °C 15.4 °C 1021.2 hPa Calm     84% 0 mm 0 W/m2
19:54 18.1 °C 15.3 °C 1021.2 hPa Calm     84% 0 mm 0 W/m2
19:59 17.9 °C 15.2 °C 1021.2 hPa Calm     84.3% 0 mm 0 W/m2
20:00 17.9 °C 15.3 °C 1021.2 hPa Calm     85% 0 mm 0 W/m2
20:09 17.7 °C 15.2 °C 1020.9 hPa Calm     85% 0 mm 0 W/m2
20:14 17.6 °C 15.2 °C 1020.9 hPa Calm     85.6% 0 mm 0 W/m2
20:19 17.6 °C 15.2 °C 1020.9 hPa Calm     86% 0 mm 0 W/m2
20:24 17.4 °C 15.1 °C 1020.9 hPa Calm     86.2% 0 mm 0 W/m2
20:29 17.3 °C 15.2 °C 1020.9 hPa Calm     86.9% 0 mm 0 W/m2
20:34 17.3 °C 15.1 °C 1020.9 hPa Calm     87% 0 mm 0 W/m2
20:39 17.2 °C 15 °C 1020.9 hPa Calm     87% 0 mm 0 W/m2
20:44 17.1 °C 15.1 °C 1020.9 hPa Calm     87.8% 0 mm 0 W/m2
20:49 17 °C 15 °C 1020.9 hPa Calm     88% 0 mm 0 W/m2
20:54 16.9 °C 14.9 °C 1020.9 hPa Calm     88% 0 mm 0 W/m2
20:59 16.8 °C 14.9 °C 1020.9 hPa Calm     88.2% 0 mm 0 W/m2
21:04 16.8 °C 14.9 °C 1020.9 hPa Calm     88.8% 0 mm 0 W/m2
21:09 16.7 °C 14.8 °C 1020.9 hPa Calm     89% 0 mm 0 W/m2
21:14 16.6 °C 14.8 °C 1020.9 hPa Calm     89.3% 0 mm 0 W/m2
21:19 16.5 °C 14.9 °C 1020.9 hPa Calm     90% 0 mm 0 W/m2
21:24 16.4 °C 14.8 °C 1020.9 hPa Calm     90% 0 mm 0 W/m2
21:29 16.4 °C 14.7 °C 1020.9 hPa Calm     90% 0 mm 0 W/m2
21:34 16.3 °C 14.8 °C 1020.9 hPa Calm     91% 0 mm 0 W/m2
21:39 16.3 °C 14.8 °C 1020.9 hPa Calm     91% 0 mm 0 W/m2
21:44 16.2 °C 14.8 °C 1020.9 hPa Calm     91% 0 mm 0 W/m2
21:49 16.2 °C 14.7 °C 1020.9 hPa Calm     91% 0 mm 0 W/m2
21:54 16.1 °C 14.6 °C 1020.9 hPa Calm     91% 0 mm 0 W/m2
21:59 16 °C 14.5 °C 1020.9 hPa Calm     91% 0 mm 0 W/m2
22:04 15.9 °C 14.5 °C 1020.9 hPa Calm     91% 0 mm 0 W/m2
22:09 15.9 °C 14.6 °C 1020.9 hPa Calm     91.7% 0 mm 0 W/m2
22:14 15.9 °C 14.6 °C 1020.5 hPa Calm     92% 0 mm 0 W/m2
22:19 15.8 °C 14.6 °C 1020.5 hPa Calm     92% 0 mm 0 W/m2
22:24 15.8 °C 14.5 °C 1020.5 hPa Calm     92% 0 mm 0 W/m2
22:29 15.7 °C 14.4 °C 1020.5 hPa Calm     92% 0 mm 0 W/m2
22:34 15.7 °C 14.4 °C 1020.5 hPa Calm     92% 0 mm 0 W/m2
22:37 15.7 °C 14.4 °C 1020.5 hPa Calm     92% 0 mm 0 W/m2
23:00 15.4 °C 14.3 °C 1020.5 hPa Calm     93% 0 mm 0 W/m2
23:30 15.3 °C 14.2 °C 1020.5 hPa Calm     93% 0 mm 0 W/m2
Hartford County Weather
Compliments of Weather Underground - 2 mb